Latest Weather Observations for Spitfire Channel

IDQ60801

Issued at 9:32 am EST Friday 12 February 2016 (issued every 30 minutes, with the page automatically refreshed every 10 minutes)

About weather observations | Map of weather stations | Latest weather observations for QLD | Other Formats
Station Details ID: 040927 Name: SPITFIRE CHANNEL BEACON Lat: -27.05 Lon: 153.27 Height: 7.0 m
Data from the previous 72 hours. | See also: Recent months for locations in Queensland
Date/Time
EST
Temp
°C
App
Temp
°C
Dew
Point
Rel
Hum
%
Delta-T
°C
Wind Press
QNH
hPa
Press
MSL
hPa
Rain
since 9 am
mm
Dir
 
Spd
km/h
Gust
km/h
Spd
kts
Gust
kts
12/09:30am - - - - - ESE 30 37 16 20 - - -
12/09:00am - - - - - ESE 28 33 15 18 - - -
12/08:30am - - - - - ESE 28 33 15 18 - - -
12/08:00am - - - - - SSE 24 30 13 16 - - -
12/07:30am - - - - - SSE 24 28 13 15 - - -
12/07:00am - - - - - SSE 26 30 14 16 - - -
12/06:30am - - - - - SSE 30 35 16 19 - - -
12/06:00am - - - - - SSE 32 35 17 19 - - -
12/05:30am - - - - - SSE 30 33 16 18 - - -
12/05:00am - - - - - SSE 28 32 15 17 - - -
12/04:30am - - - - - SE 26 30 14 16 - - -
12/04:00am - - - - - SE 24 30 13 16 - - -
12/03:30am - - - - - SE 26 32 14 17 - - -
12/03:00am - - - - - SE 24 28 13 15 - - -
12/02:30am - - - - - ESE 22 28 12 15 - - -
12/02:00am - - - - - SE 26 30 14 16 - - -
12/01:30am - - - - - ESE 24 30 13 16 - - -
12/01:00am - - - - - ESE 24 30 13 16 - - -
12/12:30am - - - - - ESE 22 28 12 15 - - -
12/12:00am - - - - - ESE 24 32 13 17 - - -
 
Date/Time
EST
Temp
°C
App
Temp
°C
Dew
Point
Rel
Hum
%
Delta-T
°C
Wind Press
QNH
hPa
Press
MSL
hPa
Rain
since 9 am
mm
Dir
 
Spd
km/h
Gust
km/h
Spd
kts
Gust
kts
11/11:30pm - - - - - SE 22 28 12 15 - - -
11/11:00pm - - - - - SE 22 26 12 14 - - -
11/10:30pm - - - - - ESE 20 26 11 14 - - -
11/10:00pm - - - - - ESE 20 28 11 15 - - -
11/09:30pm - - - - - ESE 22 26 12 14 - - -
11/09:00pm - - - - - ESE 22 26 12 14 - - -
11/08:30pm - - - - - ESE 22 28 12 15 - - -
11/08:00pm - - - - - ESE 26 33 14 18 - - -
11/07:30pm - - - - - ESE 28 35 15 19 - - -
11/07:00pm - - - - - ESE 26 32 14 17 - - -
11/06:30pm - - - - - ESE 30 33 16 18 - - -
11/06:00pm - - - - - ESE 32 39 17 21 - - -
11/05:30pm - - - - - E 37 43 20 23 - - -
11/05:00pm - - - - - E 39 46 21 25 - - -
11/04:30pm - - - - - ESE 32 39 17 21 - - -
11/04:00pm - - - - - ESE 33 39 18 21 - - -
11/03:30pm - - - - - ESE 33 39 18 21 - - -
11/03:00pm - - - - - ESE 33 41 18 22 - - -
11/02:30pm - - - - - ESE 20 33 11 18 - - -
11/02:00pm - - - - - E 20 26 11 14 - - -
11/01:30pm - - - - - E 32 39 17 21 - - -
11/01:00pm - - - - - ESE 33 39 18 21 - - -
11/12:30pm - - - - - E 35 43 19 23 - - -
11/12:00pm - - - - - ESE 26 32 14 17 - - -
11/11:30am - - - - - ESE 26 30 14 16 - - -
11/11:00am - - - - - ESE 24 32 13 17 - - -
11/10:30am - - - - - SE 24 28 13 15 - - -
11/10:00am - - - - - SE 24 28 13 15 - - -
11/09:30am - - - - - SE 24 28 13 15 - - -
11/09:00am - - - - - SSE 24 28 13 15 - - -
11/08:30am - - - - - SSE 24 32 13 17 - - -
11/08:00am - - - - - SSE 24 30 13 16 - - -
11/07:30am - - - - - S 26 30 14 16 - - -
11/07:00am - - - - - S 24 28 13 15 - - -
11/06:30am - - - - - S 22 28 12 15 - - -
11/06:00am - - - - - SE 19 24 10 13 - - -
11/05:30am - - - - - SE 19 22 10 12 - - -
11/05:00am - - - - - SE 20 26 11 14 - - -
11/04:30am - - - - - SE 22 26 12 14 - - -
11/04:00am - - - - - SE 24 28 13 15 - - -
11/03:30am - - - - - SE 22 28 12 15 - - -
11/03:00am - - - - - ESE 24 30 13 16 - - -
11/02:30am - - - - - SE 22 26 12 14 - - -
11/02:00am - - - - - SE 24 28 13 15 - - -
11/01:30am - - - - - ESE 22 26 12 14 - - -
11/01:00am - - - - - ESE 24 30 13 16 - - -
11/12:30am - - - - - ESE 24 30 13 16 - - -
11/12:00am - - - - - ESE 20 24 11 13 - - -
 
Date/Time
EST
Temp
°C
App
Temp
°C
Dew
Point
Rel
Hum
%
Delta-T
°C
Wind Press
QNH
hPa
Press
MSL
hPa
Rain
since 9 am
mm
Dir
 
Spd
km/h
Gust
km/h
Spd
kts
Gust
kts
10/11:30pm - - - - - ESE 22 28 12 15 - - -
10/11:00pm - - - - - ESE 24 28 13 15 - - -
10/10:30pm - - - - - ESE 22 28 12 15 - - -
10/10:00pm - - - - - SE 26 33 14 18 - - -
10/09:30pm - - - - - SE 26 33 14 18 - - -
10/09:00pm - - - - - SE 33 41 18 22 - - -
10/08:30pm - - - - - ESE 30 35 16 19 - - -
10/08:00pm - - - - - ESE 32 39 17 21 - - -
10/07:30pm - - - - - ESE 33 43 18 23 - - -
10/07:00pm - - - - - ESE 26 32 14 17 - - -
10/06:30pm - - - - - ESE 30 35 16 19 - - -
10/06:00pm - - - - - ESE 28 33 15 18 - - -
10/05:30pm - - - - - ESE 30 35 16 19 - - -
10/05:00pm - - - - - ESE 28 33 15 18 - - -
10/04:30pm - - - - - ESE 30 35 16 19 - - -
10/04:00pm - - - - - ESE 33 39 18 21 - - -
10/03:30pm - - - - - ESE 32 39 17 21 - - -
10/03:00pm - - - - - ESE 32 37 17 20 - - -
10/02:30pm - - - - - ESE 30 41 16 22 - - -
10/02:08pm - - - - - ESE 28 48 15 26 - - -
10/02:00pm - - - - - ESE 32 48 17 26 - - -
10/01:30pm - - - - - SE 30 33 16 18 - - -
10/01:00pm - - - - - SE 26 30 14 16 - - -
10/12:30pm - - - - - ESE 33 41 18 22 - - -
10/12:00pm - - - - - SE 26 35 14 19 - - -
10/11:30am - - - - - SSE 28 33 15 18 - - -
10/11:00am - - - - - SSE 28 33 15 18 - - -
10/10:30am - - - - - SSE 30 35 16 19 - - -
10/10:00am - - - - - SE 33 41 18 22 - - -
10/09:30am - - - - - SE 37 43 20 23 - - -
10/09:00am - - - - - SE 37 44 20 24 - - -
10/08:30am - - - - - SE 35 43 19 23 - - -
10/08:00am - - - - - SSE 33 39 18 21 - - -
10/07:30am - - - - - SE 35 43 19 23 - - -
10/07:00am - - - - - SSE 32 37 17 20 - - -
10/06:30am - - - - - SSE 37 43 20 23 - - -
10/06:00am - - - - - SSE 35 41 19 22 - - -
10/05:30am - - - - - SSE 35 43 19 23 - - -
10/05:00am - - - - - SSE 35 43 19 23 - - -
10/04:30am - - - - - SSE 35 43 19 23 - - -
10/04:00am - - - - - SSE 33 39 18 21 - - -
10/03:30am - - - - - SSE 32 37 17 20 - - -
10/03:00am - - - - - SSE 32 37 17 20 - - -
10/02:30am - - - - - SE 33 39 18 21 - - -
10/02:00am - - - - - SE 33 37 18 20 - - -
10/01:30am - - - - - SE 32 37 17 20 - - -
10/01:00am - - - - - SE 35 39 19 21 - - -
10/12:30am - - - - - SE 32 39 17 21 - - -
10/12:00am - - - - - SE 37 43 20 23 - - -
 
Date/Time
EST
Temp
°C
App
Temp
°C
Dew
Point
Rel
Hum
%
Delta-T
°C
Wind Press
QNH
hPa
Press
MSL
hPa
Rain
since 9 am
mm
Dir
 
Spd
km/h
Gust
km/h
Spd
kts
Gust
kts
09/11:30pm - - - - - SE 37 43 20 23 - - -
09/11:00pm - - - - - SE 24 32 13 17 - - -
09/10:30pm - - - - - SE 33 41 18 22 - - -
09/10:00pm - - - - - SE 35 43 19 23 - - -
09/09:30pm - - - - - SSE 30 35 16 19 - - -
09/09:00pm - - - - - ESE 30 44 16 24 - - -
09/08:30pm - - - - - ESE 30 44 16 24 - - -
09/08:28pm - - - - - ESE 28 44 15 24 - - -
09/08:16pm - - - - - ESE 32 43 17 23 - - -
09/08:00pm - - - - - SE 37 46 20 25 - - -
09/07:30pm - - - - - SE 39 48 21 26 - - -
09/07:00pm - - - - - SE 43 52 23 28 - - -
09/06:30pm - - - - - SE 43 52 23 28 - - -
09/06:00pm - - - - - SE 37 46 20 25 - - -
09/05:30pm - - - - - SE 39 48 21 26 - - -
09/05:00pm - - - - - SE 35 43 19 23 - - -
09/04:30pm - - - - - SE 35 43 19 23 - - -
09/04:00pm - - - - - SE 37 46 20 25 - - -
09/03:30pm - - - - - ESE 35 43 19 23 - - -
09/03:00pm - - - - - SE 37 44 20 24 - - -
09/02:30pm - - - - - SE 37 48 20 26 - - -
09/02:00pm - - - - - SE 37 43 20 23 - - -
09/01:30pm - - - - - SE 37 43 20 23 - - -
09/01:00pm - - - - - SE 35 43 19 23 - - -
09/12:30pm - - - - - SE 37 46 20 25 - - -
09/12:00pm - - - - - ESE 39 44 21 24 - - -
09/11:30am - - - - - SE 39 46 21 25 - - -
09/11:00am - - - - - SE 39 46 21 25 - - -
09/10:30am - - - - - SE 35 43 19 23 - - -
09/10:00am - - - - - SE 37 44 20 24 - - -

Other Formats:

Comma delimited format used in spreadsheet applications
http://www.bom.gov.au/fwo/IDQ60801/IDQ60801.94581.axf

JavaScript Object Notation format (JSON) in row-major order
http://www.bom.gov.au/fwo/IDQ60801/IDQ60801.94581.json